Time;durP1;ratioP1;P1;durP2;ratioP2;P2;SDS_P1;SDS_P2;PMS_P1;PMS_P2;Temp;Humidity;BMP_temperature;BMP_pressure;BME280_temperature;BME280_humidity;BME280_pressure;Samples;Min_cycle;Max_cycle;Signal;HPM_P1;HPM_P2
2023/09/21 00:01:38;;;;;;;;;;;;;;;20.38;60.10;98473.66;10207431;28;881;-75
2023/09/21 00:06:35;;;;;;;;;;;;;;;20.39;60.15;98479.81;10207575;28;892;-75
2023/09/21 00:11:36;;;;;;;;;;;;;;;20.40;59.91;98478.84;10206372;28;1898;-75
2023/09/21 00:16:32;;;;;;;;;;;;;;;20.39;59.88;98474.53;10206778;28;865;-74
2023/09/21 00:21:31;;;;;;;;;;;;;;;20.39;59.97;98466.59;10206157;28;871;-75
2023/09/21 00:26:27;;;;;;;;;;;;;;;20.38;60.06;98459.59;10206469;28;972;-75
2023/09/21 00:31:23;;;;;;;;;;;;;;;20.36;60.06;98455.25;10206213;28;1899;-75
2023/09/21 00:36:19;;;;;;;;;;;;;;;20.36;59.96;98459.72;10205511;28;835;-75
2023/09/21 00:41:15;;;;;;;;;;;;;;;20.37;60.13;98445.53;10205270;28;1440;-74
2023/09/21 00:46:11;;;;;;;;;;;;;;;20.36;60.18;98430.59;10205752;28;816;-75
2023/09/21 00:51:07;;;;;;;;;;;;;;;20.36;60.08;98433.25;10204979;28;1906;-75
2023/09/21 00:56:03;;;;;;;;;;;;;;;20.35;60.13;98420.97;10205478;28;795;-75
2023/09/21 01:00:59;;;;;;;;;;;;;;;20.35;60.04;98419.16;10204735;28;865;-75
2023/09/21 01:05:55;;;;;;;;;;;;;;;20.35;60.00;98416.50;10204792;28;886;-75
2023/09/21 01:10:51;;;;;;;;;;;;;;;20.35;60.12;98405.91;10205022;28;1894;-75
2023/09/21 01:15:47;;;;;;;;;;;;;;;20.35;59.97;98405.09;10204188;28;1004;-75
2023/09/21 01:20:44;;;;;;;;;;;;;;;20.35;60.25;98397.97;10204163;28;947;-75
2023/09/21 01:25:40;;;;;;;;;;;;;;;20.34;60.08;98385.72;10204026;28;925;-75
2023/09/21 01:30:36;;;;;;;;;;;;;;;20.35;60.14;98384.75;10204051;28;1902;-75
2023/09/21 01:35:32;;;;;;;;;;;;;;;20.33;60.16;98373.47;10203943;28;858;-75
2023/09/21 01:40:27;;;;;;;;;;;;;;;20.33;60.15;98367.31;10204169;28;1109;-75
2023/09/21 01:45:23;;;;;;;;;;;;;;;20.33;60.16;98360.22;10204295;28;755;-75
2023/09/21 01:50:21;;;;;;;;;;;;;;;20.33;60.08;98354.94;10203600;28;1918;-75
2023/09/21 01:55:17;;;;;;;;;;;;;;;20.32;60.03;98350.59;10203504;28;840;-75
2023/09/21 02:00:25;;;;;;;;;;;;;;;20.33;60.01;98339.06;10203405;28;865;-75
2023/09/21 02:05:21;;;;;;;;;;;;;;;20.33;60.07;98343.50;10203921;28;830;-75
2023/09/21 02:10:17;;;;;;;;;;;;;;;20.32;60.13;98332.06;10203804;28;1961;-75
2023/09/21 02:15:13;;;;;;;;;;;;;;;20.32;60.00;98324.13;10204457;28;924;-75
2023/09/21 02:20:13;;;;;;;;;;;;;;;20.32;60.00;98321.47;10210857;28;1160;-75
2023/09/21 02:25:10;;;;;;;;;;;;;;;20.32;60.17;98312.72;10209957;28;1126;-75
2023/09/21 02:30:06;;;;;;;;;;;;;;;20.31;60.16;98314.50;10210336;28;1906;-75
2023/09/21 02:35:07;;;;;;;;;;;;;;;20.31;59.99;98311.88;10210509;28;782;-75
2023/09/21 02:40:06;;;;;;;;;;;;;;;20.31;60.06;98309.22;10211557;28;1335;-75
2023/09/21 02:45:04;;;;;;;;;;;;;;;20.30;60.10;98302.25;10209167;28;915;-75
2023/09/21 02:50:09;;;;;;;;;;;;;;;20.29;59.96;98295.25;10210074;28;1914;-75
2023/09/21 02:55:07;;;;;;;;;;;;;;;20.29;59.99;98287.31;10209526;28;803;-75
2023/09/21 03:00:11;;;;;;;;;;;;;;;20.28;60.12;98288.28;10208702;28;973;-75
2023/09/21 03:05:10;;;;;;;;;;;;;;;20.30;60.03;98281.09;10209082;28;840;-75
2023/09/21 03:10:09;;;;;;;;;;;;;;;20.29;60.11;98271.44;10208730;28;1894;-75
2023/09/21 03:15:07;;;;;;;;;;;;;;;20.29;60.18;98274.09;10208611;28;1162;-75
2023/09/21 03:20:12;;;;;;;;;;;;;;;20.29;60.19;98263.50;10208970;28;885;-75
2023/09/21 03:25:16;;;;;;;;;;;;;;;20.29;60.16;98265.31;10209694;28;913;-74
2023/09/21 03:30:12;;;;;;;;;;;;;;;20.29;60.20;98267.97;10208202;28;1953;-75
2023/09/21 03:35:11;;;;;;;;;;;;;;;20.28;60.17;98251.25;10208112;28;944;-75
2023/09/21 03:40:06;;;;;;;;;;;;;;;20.28;60.19;98245.13;10208377;28;1106;-75
2023/09/21 03:45:02;;;;;;;;;;;;;;;20.28;60.14;98243.31;10208178;28;809;-75
2023/09/21 03:49:59;;;;;;;;;;;;;;;20.27;60.25;98232.84;10207239;28;1914;-74
2023/09/21 03:54:55;;;;;;;;;;;;;;;20.26;60.24;98221.41;10207594;28;895;-75
2023/09/21 03:59:50;;;;;;;;;;;;;;;20.27;60.21;98217.78;10206914;28;1017;-75
2023/09/21 04:04:46;;;;;;;;;;;;;;;20.27;60.13;98212.50;10208014;28;960;-75
2023/09/21 04:09:42;;;;;;;;;;;;;;;20.26;60.20;98202.91;10205946;28;1902;-75
2023/09/21 04:14:38;;;;;;;;;;;;;;;20.26;60.10;98192.31;10206977;28;815;-75
2023/09/21 04:19:35;;;;;;;;;;;;;;;20.25;60.22;98182.69;10206834;28;767;-75
2023/09/21 04:24:31;;;;;;;;;;;;;;;20.25;60.36;98188.00;10205980;28;947;-75
2023/09/21 04:29:27;;;;;;;;;;;;;;;20.24;60.15;98183.66;10206371;28;1906;-75
2023/09/21 04:34:23;;;;;;;;;;;;;;;20.25;60.20;98177.41;10206882;28;874;-75
2023/09/21 04:39:19;;;;;;;;;;;;;;;20.25;60.27;98181.84;10204205;28;1480;-73
2023/09/21 04:44:15;;;;;;;;;;;;;;;20.23;60.31;98181.97;10205359;28;1004;-72
2023/09/21 04:49:11;;;;;;;;;;;;;;;20.23;60.09;98179.31;10204942;28;1983;-73
2023/09/21 04:54:08;;;;;;;;;;;;;;;20.23;60.08;98165.25;10204909;28;788;-74
2023/09/21 04:59:04;;;;;;;;;;;;;;;20.23;60.18;98168.75;10204161;28;1132;-74
2023/09/21 05:04:00;;;;;;;;;;;;;;;20.22;60.07;98172.34;10204521;28;943;-74
2023/09/21 05:08:57;;;;;;;;;;;;;;;20.23;60.24;98165.25;10205453;28;1902;-75
2023/09/21 05:13:53;;;;;;;;;;;;;;;20.23;60.45;98168.75;10204409;28;879;-75
2023/09/21 05:18:50;;;;;;;;;;;;;;;20.24;60.53;98165.13;10205133;28;868;-74
2023/09/21 05:23:45;;;;;;;;;;;;;;;20.23;60.52;98159.97;10204150;28;886;-74
2023/09/21 05:28:43;;;;;;;;;;;;;;;20.22;60.49;98158.28;10204189;28;1921;-74
2023/09/21 05:33:39;;;;;;;;;;;;;;;20.22;60.65;98161.75;10203262;28;850;-74
2023/09/21 05:38:37;;;;;;;;;;;;;;;20.21;60.53;98165.38;10204007;28;1110;-70
2023/09/21 05:43:32;;;;;;;;;;;;;;;20.22;60.50;98171.50;10203891;28;860;-74
2023/09/21 05:48:29;;;;;;;;;;;;;;;20.22;60.50;98172.34;10204167;28;1918;-69
2023/09/21 05:53:25;;;;;;;;;;;;;;;20.22;60.58;98177.63;10211224;28;814;-72
2023/09/21 05:58:21;;;;;;;;;;;;;;;20.22;60.70;98182.91;10212561;28;891;-76
2023/09/21 06:03:17;;;;;;;;;;;;;;;20.24;60.67;98173.06;10211927;28;811;-75
2023/09/21 06:08:14;;;;;;;;;;;;;;;20.24;60.54;98169.59;10211773;28;1906;-72
2023/09/21 06:13:09;;;;;;;;;;;;;;;20.23;60.51;98168.75;10210935;28;855;-74
2023/09/21 06:18:05;;;;;;;;;;;;;;;20.22;60.52;98169.69;10211485;28;832;-73
2023/09/21 06:23:02;;;;;;;;;;;;;;;20.22;60.43;98169.69;10210855;28;900;-73
2023/09/21 06:27:58;;;;;;;;;;;;;;;20.23;60.62;98174.03;10210411;28;1958;-72
2023/09/21 06:32:55;;;;;;;;;;;;;;;20.22;60.45;98174.97;10210383;28;910;-74
2023/09/21 06:37:54;;;;;;;;;;;;;;;20.25;61.17;98168.59;10209723;28;1461;-78
2023/09/21 06:42:50;;;;;;;;;;;;;;;20.26;60.80;98162.38;10209884;28;1155;-73
2023/09/21 06:47:47;;;;;;;;;;;;;;;20.24;60.68;98162.47;10209287;28;1989;-75
2023/09/21 06:52:43;;;;;;;;;;;;;;;20.24;60.97;98161.66;10209549;28;887;-73
2023/09/21 06:57:39;;;;;;;;;;;;;;;20.26;61.15;98146.50;10209443;28;963;-73
2023/09/21 07:02:36;;;;;;;;;;;;;;;20.25;61.15;98145.66;10208251;28;959;-87
2023/09/21 07:07:32;;;;;;;;;;;;;;;20.26;61.31;98155.28;10209552;28;1960;-87
2023/09/21 07:12:27;;;;;;;;;;;;;;;20.26;61.15;98147.34;10209703;28;967;-75
2023/09/21 07:17:25;;;;;;;;;;;;;;;20.26;61.09;98131.47;10209291;28;782;-75
2023/09/21 07:22:21;;;;;;;;;;;;;;;20.27;61.09;98132.28;10207882;28;970;-75
2023/09/21 07:27:17;;;;;;;;;;;;;;;20.26;61.00;98142.03;10190702;28;1950;-75
2023/09/21 07:32:13;;;;;;;;;;;;;;;20.27;60.88;98137.59;10208637;28;879;-75
2023/09/21 07:37:12;;;;;;;;;;;;;;;20.26;60.94;98142.03;10207623;28;1487;-75
2023/09/21 07:42:09;;;;;;;;;;;;;;;20.26;60.95;98128.81;10207725;28;820;-75
2023/09/21 07:47:07;;;;;;;;;;;;;;;20.26;60.81;98136.75;10207468;28;878;-75
2023/09/21 07:52:03;;;;;;;;;;;;;;;20.28;60.75;98132.19;10207137;28;1906;-75
2023/09/21 07:56:59;;;;;;;;;;;;;;;20.27;60.83;98130.47;10207710;28;834;-75
2023/09/21 08:01:56;;;;;;;;;;;;;;;20.27;60.80;98127.84;10207601;28;889;-75
2023/09/21 08:06:52;;;;;;;;;;;;;;;20.27;60.88;98127.84;10207039;28;932;-75
2023/09/21 08:11:48;;;;;;;;;;;;;;;20.29;60.60;98131.22;10206418;28;1954;-75
2023/09/21 08:16:44;;;;;;;;;;;;;;;20.30;60.59;98143.50;10206998;28;881;-75
2023/09/21 08:21:40;;;;;;;;;;;;;;;20.31;60.45;98136.41;10206842;28;859;-75
2023/09/21 08:26:37;;;;;;;;;;;;;;;20.30;60.62;98129.41;10207198;28;787;-75
2023/09/21 08:31:33;;;;;;;;;;;;;;;20.29;60.59;98141.78;10205667;28;1882;-75
2023/09/21 08:36:28;;;;;;;;;;;;;;;20.31;60.59;98154.91;10205751;28;853;-76
2023/09/21 08:41:24;;;;;;;;;;;;;;;20.30;60.57;98161.16;10205407;28;1246;-75
2023/09/21 08:46:20;;;;;;;;;;;;;;;20.29;60.64;98165.59;10205350;28;877;-75
2023/09/21 08:51:18;;;;;;;;;;;;;;;20.32;60.50;98160.06;10205107;28;1971;-75
2023/09/21 08:56:14;;;;;;;;;;;;;;;20.35;60.38;98161.63;10205554;28;881;-76
2023/09/21 09:01:10;;;;;;;;;;;;;;;20.33;60.51;98153.84;10204897;28;842;-75
2023/09/21 09:06:06;;;;;;;;;;;;;;;20.34;60.40;98150.22;10204767;28;967;-75
2023/09/21 09:11:02;;;;;;;;;;;;;;;20.32;60.42;98153.94;10204216;28;1887;-75
2023/09/21 09:15:59;;;;;;;;;;;;;;;20.32;60.54;98154.78;10205077;28;872;-75
2023/09/21 09:20:55;;;;;;;;;;;;;;;20.33;60.58;98151.19;10204315;28;938;-75
2023/09/21 09:25:54;;;;;;;;;;;;;;;20.33;60.48;98153.84;10203701;28;848;-72
2023/09/21 09:30:52;;;;;;;;;;;;;;;20.34;60.47;98155.50;10204380;28;1965;-73
2023/09/21 09:35:48;;;;;;;;;;;;;;;20.33;60.41;98137.09;10204022;28;862;-72
2023/09/21 09:40:45;;;;;;;;;;;;;;;20.34;60.52;98155.50;10203424;28;1217;-73
2023/09/21 09:45:40;;;;;;;;;;;;;;;20.35;60.44;98141.28;10204363;28;811;-72
2023/09/21 09:50:36;;;;;;;;;;;;;;;20.39;60.28;98138.44;10201613;28;1969;-71
2023/09/21 09:55:33;;;;;;;;;;;;;;;20.35;60.33;98138.66;10202511;28;790;-72
2023/09/21 10:00:29;;;;;;;;;;;;;;;20.37;60.19;98135.91;10202843;28;886;-74
2023/09/21 10:05:25;;;;;;;;;;;;;;;20.40;60.20;98135.66;10203109;28;923;-76
2023/09/21 10:10:21;;;;;;;;;;;;;;;20.36;60.32;98143.00;10202556;28;1898;-72
2023/09/21 10:15:17;;;;;;;;;;;;;;;20.37;60.44;98138.53;10203250;28;956;-72
2023/09/21 10:20:16;;;;;;;;;;;;;;;20.38;60.26;98137.56;10202472;28;822;-72
2023/09/21 10:25:12;;;;;;;;;;;;;;;20.40;60.31;98140.09;10203262;28;862;-72
2023/09/21 10:30:09;;;;;;;;;;;;;;;20.39;60.33;98133.97;10202326;28;1957;-69
2023/09/21 10:35:05;;;;;;;;;;;;;;;20.39;60.24;98135.78;10202506;28;895;-69
2023/09/21 10:40:02;;;;;;;;;;;;;;;20.36;60.25;98137.72;10208460;28;1392;-68
2023/09/21 10:45:04;;;;;;;;;;;;;;;20.36;60.40;98131.56;10209799;28;805;-69
2023/09/21 10:50:02;;;;;;;;;;;;;;;20.39;60.19;98117.25;10208837;28;1902;-68
2023/09/21 10:54:58;;;;;;;;;;;;;;;20.44;60.12;98125.69;10208712;28;1253;-68
2023/09/21 10:59:54;;;;;;;;;;;;;;;20.44;60.15;98115.94;10209382;28;838;-69
2023/09/21 11:04:51;;;;;;;;;;;;;;;20.45;60.12;98104.38;10208987;28;763;-68
2023/09/21 11:09:48;;;;;;;;;;;;;;;20.49;60.03;98099.69;10208285;28;1955;-69
2023/09/21 11:14:44;;;;;;;;;;;;;;;20.47;60.04;98097.16;10208480;28;899;-68
2023/09/21 11:19:39;;;;;;;;;;;;;;;20.49;60.04;98086.44;10208595;28;806;-68
2023/09/21 11:24:35;;;;;;;;;;;;;;;20.50;60.14;98093.41;10208954;28;814;-73
2023/09/21 11:29:31;;;;;;;;;;;;;;;20.54;59.99;98086.91;10207589;28;1898;-72
2023/09/21 11:34:29;;;;;;;;;;;;;;;20.56;60.29;98085.84;10208070;28;838;-75
2023/09/21 11:39:29;;;;;;;;;;;;;;;20.59;60.32;98087.38;10207580;28;1087;-75
2023/09/21 11:44:25;;;;;;;;;;;;;;;20.63;60.29;98067.66;10207310;28;856;-75
2023/09/21 11:49:21;;;;;;;;;;;;;;;20.63;60.25;98075.59;10206674;28;1973;-75
2023/09/21 11:54:16;;;;;;;;;;;;;;;20.60;60.35;98065.25;10206376;28;969;-76
2023/09/21 11:59:15;;;;;;;;;;;;;;;20.60;60.50;98062.63;10207230;28;782;-75
2023/09/21 12:04:11;;;;;;;;;;;;;;;20.62;60.43;98068.63;10206447;28;967;-76
2023/09/21 12:09:07;;;;;;;;;;;;;;;20.65;60.35;98059.59;10206486;28;1894;-76
2023/09/21 12:14:04;;;;;;;;;;;;;;;20.66;60.30;98048.03;10205589;28;885;-76
2023/09/21 12:19:00;;;;;;;;;;;;;;;20.68;60.47;98043.47;10206458;28;843;-75
2023/09/21 12:23:58;;;;;;;;;;;;;;;20.72;60.33;98036.94;10205709;28;951;-75
2023/09/21 12:28:54;;;;;;;;;;;;;;;20.71;60.28;98027.31;10205152;28;1894;-76
2023/09/21 12:33:50;;;;;;;;;;;;;;;20.67;60.46;98013.50;10205392;28;820;-75
2023/09/21 12:38:46;;;;;;;;;;;;;;;20.70;60.19;98017.72;10205402;28;1442;-82
2023/09/21 12:43:43;;;;;;;;;;;;;;;20.71;60.35;98017.56;10204345;28;1256;-84
2023/09/21 12:48:38;;;;;;;;;;;;;;;20.66;60.52;98010.97;10205063;28;1910;-82
2023/09/21 12:53:34;;;;;;;;;;;;;;;20.60;60.57;98012.31;10204888;28;780;-83
2023/09/21 12:58:30;;;;;;;;;;;;;;;20.58;60.54;98001.00;10203916;28;1003;-75
2023/09/21 13:03:26;;;;;;;;;;;;;;;20.55;60.72;97991.53;10203634;28;911;-76
2023/09/21 13:08:22;;;;;;;;;;;;;;;20.56;60.69;97992.34;10203987;28;1903;-77
2023/09/21 13:13:19;;;;;;;;;;;;;;;20.57;60.93;97986.94;10203866;28;880;-75
2023/09/21 13:18:15;;;;;;;;;;;;;;;20.57;60.98;97996.69;10203882;28;857;-76
2023/09/21 13:23:11;;;;;;;;;;;;;;;20.57;60.81;97976.34;10221897;28;1027;-77
2023/09/21 13:28:07;;;;;;;;;;;;;;;20.56;60.86;97963.25;10240321;28;1898;-72
2023/09/21 13:33:03;;;;;;;;;;;;;;;20.55;60.80;97954.47;10203233;28;842;-73
2023/09/21 13:38:00;;;;;;;;;;;;;;;20.57;60.92;97954.34;10203732;28;1130;-75
2023/09/21 13:42:56;;;;;;;;;;;;;;;20.61;60.76;97947.81;10202648;28;892;-76
2023/09/21 13:47:52;;;;;;;;;;;;;;;20.66;60.63;97937.69;10202445;28;1914;-75
2023/09/21 13:52:48;;;;;;;;;;;;;;;20.72;60.45;97917.78;10202155;28;1099;-76
2023/09/21 13:57:44;;;;;;;;;;;;;;;20.71;60.58;97906.38;10203606;28;831;-76
2023/09/21 14:02:43;;;;;;;;;;;;;;;20.72;60.44;97900.13;10220617;28;995;-76
2023/09/21 14:07:39;;;;;;;;;;;;;;;20.73;60.51;97887.72;10242935;28;1955;-74
2023/09/21 14:12:36;;;;;;;;;;;;;;;20.69;60.62;97879.19;10247317;28;873;-76
2023/09/21 14:17:32;;;;;;;;;;;;;;;20.68;60.68;97888.09;10250750;28;883;-75
2023/09/21 14:22:28;;;;;;;;;;;;;;;20.72;60.51;97884.22;10250335;28;1557;-76
2023/09/21 14:27:24;;;;;;;;;;;;;;;20.68;60.76;97880.16;10250424;28;926;-76
2023/09/21 14:32:20;;;;;;;;;;;;;;;20.64;60.74;97869.94;10249944;28;1894;-77
2023/09/21 14:37:16;;;;;;;;;;;;;;;20.64;60.88;97846.97;10250205;28;1132;-75
2023/09/21 14:42:12;;;;;;;;;;;;;;;20.63;60.80;97841.81;10249260;28;910;-76
2023/09/21 14:47:08;;;;;;;;;;;;;;;20.62;60.89;97832.19;10250141;28;854;-74
2023/09/21 14:52:04;;;;;;;;;;;;;;;20.61;61.01;97819.91;10249603;28;1973;-77
2023/09/21 14:57:01;;;;;;;;;;;;;;;20.60;60.89;97827.03;10250768;28;843;-76
2023/09/21 15:01:57;;;;;;;;;;;;;;;20.60;60.93;97826.19;10249344;28;771;-72
2023/09/21 15:06:52;;;;;;;;;;;;;;;20.57;61.08;97816.72;10249264;28;836;-70
2023/09/21 15:11:48;;;;;;;;;;;;;;;20.56;61.13;97815.84;10231138;28;1890;-70
2023/09/21 15:16:44;;;;;;;;;;;;;;;20.57;61.22;97806.13;10249598;28;1201;-77
2023/09/21 15:21:40;;;;;;;;;;;;;;;20.55;61.17;97802.75;10249100;28;787;-69
2023/09/21 15:26:36;;;;;;;;;;;;;;;20.54;61.02;97778.09;10248730;28;885;-69
2023/09/21 15:31:32;;;;;;;;;;;;;;;20.54;61.34;97770.16;10248821;28;1948;-70
2023/09/21 15:36:28;;;;;;;;;;;;;;;20.54;61.27;97766.66;10248781;28;1084;-70
2023/09/21 15:41:24;;;;;;;;;;;;;;;20.54;61.18;97758.72;10248455;28;831;-73
2023/09/21 15:46:20;;;;;;;;;;;;;;;20.55;61.33;97760.41;10223643;28;1056;-72
2023/09/21 15:51:16;;;;;;;;;;;;;;;20.55;61.41;97763.88;10216421;28;1911;-79
2023/09/21 15:56:12;;;;;;;;;;;;;;;20.55;61.21;97771.84;10207455;28;810;-77
2023/09/21 16:01:08;;;;;;;;;;;;;;;20.54;61.30;97761.38;10207452;28;874;-72
2023/09/21 16:06:04;;;;;;;;;;;;;;;20.54;61.57;97761.38;10206833;28;899;-71
2023/09/21 16:11:00;;;;;;;;;;;;;;;20.54;61.32;97771.94;10206526;28;1906;-72
2023/09/21 16:15:56;;;;;;;;;;;;;;;20.52;61.34;97750.06;10206559;28;893;-72
2023/09/21 16:20:51;;;;;;;;;;;;;;;20.51;61.50;97766.91;10203192;28;951;-76
2023/09/21 16:25:47;;;;;;;;;;;;;;;20.53;61.42;97833.78;10205960;28;766;-76
2023/09/21 16:30:43;;;;;;;;;;;;;;;20.54;61.42;97875.19;10206940;28;1894;-77
2023/09/21 16:35:39;;;;;;;;;;;;;;;20.54;61.26;97886.63;10245646;28;959;-77
2023/09/21 16:40:38;;;;;;;;;;;;;;;20.52;61.34;97862.06;10241577;28;1521;-76
2023/09/21 16:45:38;;;;;;;;;;;;;;;20.51;61.43;97872.75;10203922;28;819;-77
2023/09/21 16:50:34;;;;;;;;;;;;;;;20.50;61.58;97861.34;10204778;28;1903;-78
2023/09/21 16:55:30;;;;;;;;;;;;;;;20.49;61.53;97848.25;10206023;28;845;-77
2023/09/21 17:00:26;;;;;;;;;;;;;;;20.48;61.46;97831.50;10205876;28;845;-78
2023/09/21 17:05:25;;;;;;;;;;;;;;;20.47;61.56;97821.91;10204427;28;879;-74
2023/09/21 17:10:21;;;;;;;;;;;;;;;20.48;61.52;97810.34;10204298;28;1882;-76
2023/09/21 17:15:17;;;;;;;;;;;;;;;20.48;61.42;97833.31;10205174;28;878;-75
2023/09/21 17:20:13;;;;;;;;;;;;;;;20.47;61.54;97842.25;10204391;28;860;-76
2023/09/21 17:25:09;;;;;;;;;;;;;;;20.47;61.49;97839.59;10203620;28;1307;-76
2023/09/21 17:30:06;;;;;;;;;;;;;;;20.47;61.54;97807.84;10204648;28;1950;-77
2023/09/21 17:35:02;;;;;;;;;;;;;;;20.46;61.53;97827.31;10204056;28;846;-77
2023/09/21 17:39:58;;;;;;;;;;;;;;;20.46;61.61;97822.03;10204123;28;1106;-77
2023/09/21 17:44:54;;;;;;;;;;;;;;;20.47;61.61;97794.63;10203748;28;877;-77
2023/09/21 17:49:50;;;;;;;;;;;;;;;20.46;61.60;97790.25;10211773;28;1906;-77
2023/09/21 17:54:46;;;;;;;;;;;;;;;20.46;61.70;97800.84;10212522;28;883;-76
2023/09/21 17:59:42;;;;;;;;;;;;;;;20.45;61.75;97807.97;10211706;28;854;-76
2023/09/21 18:04:38;;;;;;;;;;;;;;;20.46;61.67;97828.19;10211914;28;835;-77
2023/09/21 18:09:34;;;;;;;;;;;;;;;20.45;61.64;97828.31;10211286;28;1894;-76
2023/09/21 18:14:30;;;;;;;;;;;;;;;20.46;61.62;97840.53;10211074;28;993;-77
2023/09/21 18:19:28;;;;;;;;;;;;;;;20.46;61.56;97865.22;10211571;28;967;-77
2023/09/21 18:24:25;;;;;;;;;;;;;;;20.45;61.75;97875.94;10210982;28;1621;-77
2023/09/21 18:29:21;;;;;;;;;;;;;;;20.44;61.54;97900.72;10210165;28;1945;-77
2023/09/21 18:34:17;;;;;;;;;;;;;;;20.42;61.80;97924.66;10210315;28;943;-78
2023/09/21 18:39:13;;;;;;;;;;;;;;;20.41;61.72;97936.22;10210198;28;1526;-77
2023/09/21 18:44:09;;;;;;;;;;;;;;;20.41;61.91;97948.59;10210162;28;794;-77
2023/09/21 18:49:06;;;;;;;;;;;;;;;20.38;61.95;97941.75;10209793;28;1910;-77
2023/09/21 18:54:03;;;;;;;;;;;;;;;20.36;61.84;97949.81;10210347;28;882;-77
2023/09/21 18:58:58;;;;;;;;;;;;;;;20.38;61.92;97938.25;10209057;28;811;-78
2023/09/21 19:03:55;;;;;;;;;;;;;;;20.39;61.86;97908.22;10209236;28;884;-77
2023/09/21 19:08:51;;;;;;;;;;;;;;;20.40;61.88;97909.88;10209155;28;1890;-76
2023/09/21 19:13:49;;;;;;;;;;;;;;;20.38;61.66;97909.16;10208969;28;850;-77
2023/09/21 19:18:45;;;;;;;;;;;;;;;20.39;61.67;97921.44;10208755;28;773;-77
2023/09/21 19:23:41;;;;;;;;;;;;;;;20.40;61.71;97921.28;10208639;28;784;-79
2023/09/21 19:28:37;;;;;;;;;;;;;;;20.38;61.63;97933.81;10208351;28;1894;-77
2023/09/21 19:33:33;;;;;;;;;;;;;;;20.39;61.68;97934.69;10205852;28;1113;-77
2023/09/21 19:38:29;;;;;;;;;;;;;;;20.40;61.68;97939.00;10207554;28;1422;-76
2023/09/21 19:43:25;;;;;;;;;;;;;;;20.38;61.58;97917.94;10207147;28;795;-77
2023/09/21 19:48:21;;;;;;;;;;;;;;;20.38;61.69;97923.22;10207552;28;1972;-77
2023/09/21 19:53:17;;;;;;;;;;;;;;;20.38;61.68;97931.16;10207603;28;864;-77
2023/09/21 19:58:14;;;;;;;;;;;;;;;20.37;61.94;97953.31;10208109;28;852;-77
2023/09/21 20:03:16;;;;;;;;;;;;;;;20.39;61.78;97961.97;10206534;28;982;-77
2023/09/21 20:08:12;;;;;;;;;;;;;;;20.36;61.84;97975.47;10206572;28;1894;-69
2023/09/21 20:13:08;;;;;;;;;;;;;;;20.38;61.62;97975.31;10206412;28;886;-77
2023/09/21 20:18:06;;;;;;;;;;;;;;;20.38;61.73;97977.97;10206619;28;774;-77
2023/09/21 20:23:01;;;;;;;;;;;;;;;20.38;61.72;97992.03;10188291;28;1830;-77
2023/09/21 20:27:57;;;;;;;;;;;;;;;20.37;61.70;98000.94;10206126;28;1895;-77
2023/09/21 20:32:53;;;;;;;;;;;;;;;20.37;61.71;98006.22;10205053;28;842;-74
2023/09/21 20:37:49;;;;;;;;;;;;;;;20.39;61.54;98014.06;10206206;28;1892;-75
2023/09/21 20:42:45;;;;;;;;;;;;;;;20.36;61.53;98013.34;10206094;28;906;-79
2023/09/21 20:47:41;;;;;;;;;;;;;;;20.35;61.52;98016.94;10205525;28;822;-79
2023/09/21 20:52:37;;;;;;;;;;;;;;;20.35;61.51;98002.88;10205774;28;2002;-79
2023/09/21 20:57:33;;;;;;;;;;;;;;;20.35;61.48;98002.88;10205961;28;874;-79
2023/09/21 21:02:29;;;;;;;;;;;;;;;20.36;61.63;98015.16;10205021;28;875;-82
2023/09/21 21:07:25;;;;;;;;;;;;;;;20.35;61.58;98019.56;10205409;28;893;-82
2023/09/21 21:12:21;;;;;;;;;;;;;;;20.35;61.45;98011.63;10204937;28;1886;-83
2023/09/21 21:17:17;;;;;;;;;;;;;;;20.34;61.53;98003.84;10205755;28;1007;-83
2023/09/21 21:22:13;;;;;;;;;;;;;;;20.34;61.48;98032.94;10204613;28;858;-83
2023/09/21 21:27:09;;;;;;;;;;;;;;;20.34;61.44;98025.00;10204614;28;864;-83
2023/09/21 21:32:07;;;;;;;;;;;;;;;20.33;61.46;98020.66;10205609;28;1965;-83
2023/09/21 21:37:03;;;;;;;;;;;;;;;20.32;61.38;98022.47;10203925;28;1350;-83
2023/09/21 21:41:59;;;;;;;;;;;;;;;20.32;61.35;98019.84;10203861;28;791;-83
2023/09/21 21:46:54;;;;;;;;;;;;;;;20.32;61.36;98019.00;10203269;28;851;-83
2023/09/21 21:51:50;;;;;;;;;;;;;;;20.33;61.42;98012.72;10203618;28;1910;-83
2023/09/21 21:56:46;;;;;;;;;;;;;;;20.31;61.36;98007.56;10203857;28;767;-83
2023/09/21 22:01:42;;;;;;;;;;;;;;;20.31;61.51;98006.75;10204166;28;791;-82
2023/09/21 22:06:38;;;;;;;;;;;;;;;20.30;61.44;98015.63;10203541;28;889;-82
2023/09/21 22:11:36;;;;;;;;;;;;;;;20.29;61.43;98009.50;10203758;28;1894;-83
2023/09/21 22:16:32;;;;;;;;;;;;;;;20.29;61.46;98009.50;10203319;28;927;-83
2023/09/21 22:21:28;;;;;;;;;;;;;;;20.29;61.50;98009.50;10203199;28;988;-83
2023/09/21 22:26:24;;;;;;;;;;;;;;;20.28;61.53;98017.59;10202971;28;884;-83
2023/09/21 22:31:20;;;;;;;;;;;;;;;20.28;61.46;98022.88;10202692;28;1894;-82
2023/09/21 22:36:16;;;;;;;;;;;;;;;20.27;61.46;98018.53;10210524;28;867;-83
2023/09/21 22:41:11;;;;;;;;;;;;;;;20.27;61.44;98029.94;10210869;28;1113;-83
2023/09/21 22:46:07;;;;;;;;;;;;;;;20.26;61.49;98030.09;10211262;28;779;-83
2023/09/21 22:51:05;;;;;;;;;;;;;;;20.26;61.42;98015.03;10209786;28;1922;-83
2023/09/21 22:56:00;;;;;;;;;;;;;;;20.24;61.25;98006.38;10209705;28;903;-82
2023/09/21 23:00:57;;;;;;;;;;;;;;;20.24;61.51;97990.50;10209569;28;978;-83
2023/09/21 23:05:53;;;;;;;;;;;;;;;20.23;61.50;97994.13;10209371;28;896;-82
2023/09/21 23:10:49;;;;;;;;;;;;;;;20.23;61.52;97998.59;10209044;28;1902;-83
2023/09/21 23:15:45;;;;;;;;;;;;;;;20.23;61.53;97999.44;10208815;28;862;-83
2023/09/21 23:20:41;;;;;;;;;;;;;;;20.23;61.46;98011.81;10209384;28;846;-83
2023/09/21 23:25:38;;;;;;;;;;;;;;;20.21;61.56;98011.94;10208592;28;857;-82
2023/09/21 23:30:34;;;;;;;;;;;;;;;20.22;61.48;98012.75;10208364;28;1898;-83
2023/09/21 23:35:30;;;;;;;;;;;;;;;20.21;61.48;98008.44;10207545;28;910;-83
2023/09/21 23:40:27;;;;;;;;;;;;;;;20.21;61.41;98013.75;10207285;28;1335;-83
2023/09/21 23:45:26;;;;;;;;;;;;;;;20.20;61.41;98028.78;10206658;28;1111;-83
2023/09/21 23:50:22;;;;;;;;;;;;;;;20.19;61.48;98020.97;10207551;28;1910;-83
2023/09/21 23:55:18;;;;;;;;;;;;;;;20.19;61.51;98029.72;10207734;28;865;-83
